sensor_id;sensor_type;location;lat;lon;timestamp;pressure;altitude;pressure_sealevel;temperature;humidity
38718;BME280;24468;52.128;9.278;2022-08-30T00:01:06;101258.25;;;18.33;100.00
38718;BME280;24468;52.128;9.278;2022-08-30T00:03:37;101256.34;;;18.21;100.00
38718;BME280;24468;52.128;9.278;2022-08-30T00:06:04;101256.66;;;18.02;100.00
38718;BME280;24468;52.128;9.278;2022-08-30T00:08:31;101255.66;;;18.03;100.00
38718;BME280;24468;52.128;9.278;2022-08-30T00:10:58;101252.31;;;18.12;100.00
38718;BME280;24468;52.128;9.278;2022-08-30T00:13:24;101245.53;;;18.05;100.00
38718;BME280;24468;52.128;9.278;2022-08-30T00:15:50;101248.06;;;17.94;100.00
38718;BME280;24468;52.128;9.278;2022-08-30T00:18:17;101252.34;;;17.98;100.00
38718;BME280;24468;52.128;9.278;2022-08-30T00:20:44;101253.16;;;17.86;100.00
38718;BME280;24468;52.128;9.278;2022-08-30T00:23:10;101256.34;;;17.92;100.00
38718;BME280;24468;52.128;9.278;2022-08-30T00:25:37;101259.16;;;18.19;100.00
38718;BME280;24468;52.128;9.278;2022-08-30T00:28:02;101255.97;;;18.54;100.00
38718;BME280;24468;52.128;9.278;2022-08-30T00:30:28;101250.09;;;19.15;100.00
38718;BME280;24468;52.128;9.278;2022-08-30T00:32:53;101254.38;;;18.79;100.00
38718;BME280;24468;52.128;9.278;2022-08-30T00:35:20;101248.72;;;18.53;100.00
38718;BME280;24468;52.128;9.278;2022-08-30T00:37:47;101245.41;;;18.62;100.00
38718;BME280;24468;52.128;9.278;2022-08-30T00:40:13;101244.69;;;18.32;100.00
38718;BME280;24468;52.128;9.278;2022-08-30T00:42:42;101243.16;;;18.28;100.00
38718;BME280;24468;52.128;9.278;2022-08-30T00:45:25;101246.88;;;18.12;100.00
38718;BME280;24468;52.128;9.278;2022-08-30T00:47:51;101242.47;;;18.10;100.00
38718;BME280;24468;52.128;9.278;2022-08-30T00:50:21;101248.34;;;18.04;100.00
38718;BME280;24468;52.128;9.278;2022-08-30T00:52:50;101255.06;;;17.98;100.00
38718;BME280;24468;52.128;9.278;2022-08-30T00:55:18;101262.47;;;17.82;100.00
38718;BME280;24468;52.128;9.278;2022-08-30T00:57:46;101256.31;;;17.64;100.00
38718;BME280;24468;52.128;9.278;2022-08-30T01:00:14;101264.97;;;17.42;100.00
38718;BME280;24468;52.128;9.278;2022-08-30T01:02:41;101254.22;;;17.39;100.00
38718;BME280;24468;52.128;9.278;2022-08-30T01:05:09;101256.03;;;17.24;100.00
38718;BME280;24468;52.128;9.278;2022-08-30T01:07:37;101255.22;;;17.07;100.00
38718;BME280;24468;52.128;9.278;2022-08-30T01:10:05;101248.09;;;17.05;100.00
38718;BME280;24468;52.128;9.278;2022-08-30T01:12:31;101252.66;;;17.04;100.00
38718;BME280;24468;52.128;9.278;2022-08-30T01:14:58;101252.03;;;17.15;100.00
38718;BME280;24468;52.128;9.278;2022-08-30T01:17:25;101246.56;;;17.15;100.00
38718;BME280;24468;52.128;9.278;2022-08-30T01:20:14;101249.75;;;17.07;100.00
38718;BME280;24468;52.128;9.278;2022-08-30T01:25:22;101255.09;;;16.63;100.00
38718;BME280;24468;52.128;9.278;2022-08-30T01:27:56;101256.06;;;16.62;100.00
38718;BME280;24468;52.128;9.278;2022-08-30T01:30:27;101257.56;;;16.20;100.00
38718;BME280;24468;52.128;9.278;2022-08-30T01:32:58;101257.31;;;15.75;100.00
38718;BME280;24468;52.128;9.278;2022-08-30T01:35:26;101252.41;;;15.65;100.00
38718;BME280;24468;52.128;9.278;2022-08-30T01:37:51;101254.00;;;15.86;100.00
38718;BME280;24468;52.128;9.278;2022-08-30T01:40:18;101257.78;;;15.84;100.00
38718;BME280;24468;52.128;9.278;2022-08-30T01:42:44;101255.59;;;16.06;100.00
38718;BME280;24468;52.128;9.278;2022-08-30T01:45:11;101262.56;;;16.12;100.00
38718;BME280;24468;52.128;9.278;2022-08-30T01:47:37;101257.06;;;15.96;100.00
38718;BME280;24468;52.128;9.278;2022-08-30T01:50:05;101260.56;;;16.15;100.00
38718;BME280;24468;52.128;9.278;2022-08-30T01:52:31;101265.38;;;16.58;100.00
38718;BME280;24468;52.128;9.278;2022-08-30T01:54:57;101260.03;;;16.40;100.00
38718;BME280;24468;52.128;9.278;2022-08-30T01:57:23;101252.72;;;16.25;100.00
38718;BME280;24468;52.128;9.278;2022-08-30T01:59:51;101248.56;;;15.86;100.00
38718;BME280;24468;52.128;9.278;2022-08-30T02:02:21;101258.44;;;16.05;100.00
38718;BME280;24468;52.128;9.278;2022-08-30T02:04:48;101264.19;;;15.98;100.00
38718;BME280;24468;52.128;9.278;2022-08-30T02:07:15;101259.78;;;15.80;100.00
38718;BME280;24468;52.128;9.278;2022-08-30T02:09:40;101255.84;;;15.86;100.00
38718;BME280;24468;52.128;9.278;2022-08-30T02:12:06;101258.47;;;15.87;100.00
38718;BME280;24468;52.128;9.278;2022-08-30T02:14:34;101252.97;;;15.89;100.00
38718;BME280;24468;52.128;9.278;2022-08-30T02:17:00;101258.47;;;15.87;100.00
38718;BME280;24468;52.128;9.278;2022-08-30T02:19:27;101262.94;;;15.72;100.00
38718;BME280;24468;52.128;9.278;2022-08-30T02:21:53;101253.34;;;15.48;100.00
38718;BME280;24468;52.128;9.278;2022-08-30T02:24:19;101257.44;;;15.39;100.00
38718;BME280;24468;52.128;9.278;2022-08-30T02:26:44;101255.53;;;15.06;100.00
38718;BME280;24468;52.128;9.278;2022-08-30T02:29:10;101264.16;;;15.15;100.00
38718;BME280;24468;52.128;9.278;2022-08-30T02:31:36;101264.88;;;15.18;100.00
38718;BME280;24468;52.128;9.278;2022-08-30T02:34:01;101267.19;;;15.26;100.00
38718;BME280;24468;52.128;9.278;2022-08-30T02:36:28;101271.34;;;15.33;100.00
38718;BME280;24468;52.128;9.278;2022-08-30T02:38:54;101269.34;;;15.37;100.00
38718;BME280;24468;52.128;9.278;2022-08-30T02:41:20;101272.41;;;15.30;100.00
38718;BME280;24468;52.128;9.278;2022-08-30T02:43:48;101267.34;;;15.40;100.00
38718;BME280;24468;52.128;9.278;2022-08-30T02:46:14;101272.28;;;15.49;100.00
38718;BME280;24468;52.128;9.278;2022-08-30T02:48:41;101264.91;;;15.51;100.00
38718;BME280;24468;52.128;9.278;2022-08-30T02:51:11;101267.25;;;15.42;100.00
38718;BME280;24468;52.128;9.278;2022-08-30T02:53:39;101276.31;;;15.25;100.00
38718;BME280;24468;52.128;9.278;2022-08-30T02:56:05;101274.38;;;15.09;100.00
38718;BME280;24468;52.128;9.278;2022-08-30T02:58:31;101269.50;;;15.16;100.00
38718;BME280;24468;52.128;9.278;2022-08-30T03:00:56;101268.94;;;15.09;100.00
38718;BME280;24468;52.128;9.278;2022-08-30T03:03:22;101262.63;;;15.09;100.00
38718;BME280;24468;52.128;9.278;2022-08-30T03:05:47;101262.78;;;15.06;100.00
38718;BME280;24468;52.128;9.278;2022-08-30T03:08:13;101261.09;;;15.21;100.00
38718;BME280;24468;52.128;9.278;2022-08-30T03:10:39;101261.81;;;15.24;100.00
38718;BME280;24468;52.128;9.278;2022-08-30T03:13:05;101260.06;;;15.23;100.00
38718;BME280;24468;52.128;9.278;2022-08-30T03:15:33;101262.72;;;15.25;100.00
38718;BME280;24468;52.128;9.278;2022-08-30T03:17:59;101268.88;;;14.57;100.00
38718;BME280;24468;52.128;9.278;2022-08-30T03:20:25;101269.38;;;14.65;100.00
38718;BME280;24468;52.128;9.278;2022-08-30T03:22:51;101264.69;;;14.86;100.00
38718;BME280;24468;52.128;9.278;2022-08-30T03:25:17;101261.41;;;14.97;100.00
38718;BME280;24468;52.128;9.278;2022-08-30T03:27:45;101262.38;;;14.96;100.00
38718;BME280;24468;52.128;9.278;2022-08-30T03:30:11;101272.09;;;14.83;100.00
38718;BME280;24468;52.128;9.278;2022-08-30T03:32:39;101279.81;;;14.92;100.00
38718;BME280;24468;52.128;9.278;2022-08-30T03:35:06;101270.53;;;15.13;100.00
38718;BME280;24468;52.128;9.278;2022-08-30T03:37:32;101271.19;;;15.01;100.00
38718;BME280;24468;52.128;9.278;2022-08-30T03:39:58;101270.34;;;15.86;100.00
38718;BME280;24468;52.128;9.278;2022-08-30T03:42:23;101262.38;;;16.15;100.00
38718;BME280;24468;52.128;9.278;2022-08-30T03:44:49;101253.06;;;16.03;100.00
38718;BME280;24468;52.128;9.278;2022-08-30T03:47:15;101258.50;;;16.03;100.00
38718;BME280;24468;52.128;9.278;2022-08-30T03:49:40;101259.03;;;15.94;100.00
38718;BME280;24468;52.128;9.278;2022-08-30T03:52:06;101256.38;;;15.42;100.00
38718;BME280;24468;52.128;9.278;2022-08-30T03:54:32;101256.81;;;15.17;100.00
38718;BME280;24468;52.128;9.278;2022-08-30T03:56:57;101256.06;;;14.96;100.00
38718;BME280;24468;52.128;9.278;2022-08-30T03:59:23;101270.47;;;14.61;100.00
38718;BME280;24468;52.128;9.278;2022-08-30T04:01:49;101275.13;;;14.77;100.00
38718;BME280;24468;52.128;9.278;2022-08-30T04:04:15;101282.47;;;14.75;100.00
38718;BME280;24468;52.128;9.278;2022-08-30T04:06:40;101281.25;;;14.63;100.00
38718;BME280;24468;52.128;9.278;2022-08-30T04:09:06;101285.34;;;14.72;100.00
38718;BME280;24468;52.128;9.278;2022-08-30T04:11:32;101278.88;;;14.74;100.00
38718;BME280;24468;52.128;9.278;2022-08-30T04:13:58;101275.91;;;14.98;100.00
38718;BME280;24468;52.128;9.278;2022-08-30T04:16:24;101278.22;;;15.23;100.00
38718;BME280;24468;52.128;9.278;2022-08-30T04:18:50;101284.59;;;15.22;100.00
38718;BME280;24468;52.128;9.278;2022-08-30T04:21:16;101292.84;;;15.20;100.00
38718;BME280;24468;52.128;9.278;2022-08-30T04:23:42;101284.59;;;15.22;100.00
38718;BME280;24468;52.128;9.278;2022-08-30T04:26:08;101280.28;;;15.18;100.00
38718;BME280;24468;52.128;9.278;2022-08-30T04:28:34;101282.53;;;14.92;100.00
38718;BME280;24468;52.128;9.278;2022-08-30T04:31:08;101291.16;;;15.00;100.00
38718;BME280;24468;52.128;9.278;2022-08-30T04:33:35;101288.84;;;15.10;100.00
38718;BME280;24468;52.128;9.278;2022-08-30T04:36:03;101300.94;;;14.68;100.00
38718;BME280;24468;52.128;9.278;2022-08-30T04:38:30;101291.22;;;14.81;100.00
38718;BME280;24468;52.128;9.278;2022-08-30T04:40:56;101291.00;;;14.67;100.00
38718;BME280;24468;52.128;9.278;2022-08-30T04:43:21;101292.84;;;14.66;100.00
38718;BME280;24468;52.128;9.278;2022-08-30T04:45:50;101297.38;;;14.85;100.00
38718;BME280;24468;52.128;9.278;2022-08-30T04:48:16;101296.59;;;15.00;100.00
38718;BME280;24468;52.128;9.278;2022-08-30T04:50:42;101296.22;;;15.25;100.00
38718;BME280;24468;52.128;9.278;2022-08-30T04:53:08;101293.06;;;15.16;100.00
38718;BME280;24468;52.128;9.278;2022-08-30T04:55:34;101286.19;;;16.11;100.00
38718;BME280;24468;52.128;9.278;2022-08-30T04:57:59;101286.25;;;15.94;100.00
38718;BME280;24468;52.128;9.278;2022-08-30T05:00:25;101290.94;;;15.90;100.00
38718;BME280;24468;52.128;9.278;2022-08-30T05:02:51;101297.22;;;15.57;100.00
38718;BME280;24468;52.128;9.278;2022-08-30T05:05:16;101297.66;;;15.50;100.00
38718;BME280;24468;52.128;9.278;2022-08-30T05:08:01;101311.72;;;15.58;100.00
38718;BME280;24468;52.128;9.278;2022-08-30T05:10:27;101318.78;;;15.95;100.00
38718;BME280;24468;52.128;9.278;2022-08-30T05:12:53;101315.34;;;16.25;100.00
38718;BME280;24468;52.128;9.278;2022-08-30T05:15:19;101313.25;;;16.30;100.00
38718;BME280;24468;52.128;9.278;2022-08-30T05:17:47;101309.63;;;16.14;100.00
38718;BME280;24468;52.128;9.278;2022-08-30T05:20:12;101325.56;;;16.37;100.00
38718;BME280;24468;52.128;9.278;2022-08-30T05:22:41;101320.09;;;16.21;100.00
38718;BME280;24468;52.128;9.278;2022-08-30T05:25:19;101320.78;;;16.25;100.00
38718;BME280;24468;52.128;9.278;2022-08-30T05:27:45;101321.78;;;16.72;100.00
38718;BME280;24468;52.128;9.278;2022-08-30T05:30:14;101317.25;;;16.88;100.00
38718;BME280;24468;52.128;9.278;2022-08-30T05:32:40;101323.38;;;17.07;100.00
38718;BME280;24468;52.128;9.278;2022-08-30T05:35:08;101319.09;;;17.03;100.00
38718;BME280;24468;52.128;9.278;2022-08-30T05:37:34;101318.19;;;17.03;100.00
38718;BME280;24468;52.128;9.278;2022-08-30T05:40:00;101323.19;;;16.95;100.00
38718;BME280;24468;52.128;9.278;2022-08-30T05:42:26;101323.06;;;16.82;100.00
38718;BME280;24468;52.128;9.278;2022-08-30T05:44:52;101332.63;;;16.73;100.00
38718;BME280;24468;52.128;9.278;2022-08-30T05:47:19;101334.75;;;16.84;100.00
38718;BME280;24468;52.128;9.278;2022-08-30T05:49:46;101329.72;;;16.76;100.00
38718;BME280;24468;52.128;9.278;2022-08-30T05:52:12;101335.34;;;16.57;100.00
38718;BME280;24468;52.128;9.278;2022-08-30T05:54:40;101331.91;;;16.54;100.00
38718;BME280;24468;52.128;9.278;2022-08-30T05:57:06;101332.25;;;16.32;100.00
38718;BME280;24468;52.128;9.278;2022-08-30T05:59:32;101342.06;;;16.18;100.00
38718;BME280;24468;52.128;9.278;2022-08-30T06:01:58;101339.81;;;16.58;100.00
38718;BME280;24468;52.128;9.278;2022-08-30T06:04:24;101334.28;;;16.60;100.00
38718;BME280;24468;52.128;9.278;2022-08-30T06:06:50;101333.09;;;16.48;100.00
38718;BME280;24468;52.128;9.278;2022-08-30T06:09:15;101325.31;;;16.58;100.00
38718;BME280;24468;52.128;9.278;2022-08-30T06:11:42;101333.41;;;17.67;100.00
38718;BME280;24468;52.128;9.278;2022-08-30T06:14:08;101322.53;;;18.39;100.00
38718;BME280;24468;52.128;9.278;2022-08-30T06:16:36;101328.78;;;17.98;100.00
38718;BME280;24468;52.128;9.278;2022-08-30T06:19:04;101329.56;;;18.14;100.00
38718;BME280;24468;52.128;9.278;2022-08-30T06:21:34;101338.28;;;18.91;100.00
38718;BME280;24468;52.128;9.278;2022-08-30T06:24:01;101334.09;;;18.71;100.00
38718;BME280;24468;52.128;9.278;2022-08-30T06:26:28;101337.66;;;19.00;100.00
38718;BME280;24468;52.128;9.278;2022-08-30T06:28:56;101328.78;;;18.97;100.00
38718;BME280;24468;52.128;9.278;2022-08-30T06:31:24;101340.50;;;18.14;100.00
38718;BME280;24468;52.128;9.278;2022-08-30T06:33:50;101343.81;;;18.05;100.00
38718;BME280;24468;52.128;9.278;2022-08-30T06:36:20;101339.63;;;18.14;100.00
38718;BME280;24468;52.128;9.278;2022-08-30T06:38:49;101335.25;;;17.97;100.00
38718;BME280;24468;52.128;9.278;2022-08-30T06:41:18;101340.50;;;18.14;100.00
38718;BME280;24468;52.128;9.278;2022-08-30T06:43:45;101334.66;;;18.35;100.00
38718;BME280;24468;52.128;9.278;2022-08-30T06:46:16;101337.00;;;18.41;100.00
38718;BME280;24468;52.128;9.278;2022-08-30T06:48:42;101339.91;;;18.52;100.00
38718;BME280;24468;52.128;9.278;2022-08-30T06:51:08;101335.44;;;18.93;100.00
38718;BME280;24468;52.128;9.278;2022-08-30T06:53:34;101327.00;;;19.50;100.00
38718;BME280;24468;52.128;9.278;2022-08-30T06:56:11;101329.09;;;18.92;100.00
38718;BME280;24468;52.128;9.278;2022-08-30T06:58:39;101332.88;;;18.62;100.00
38718;BME280;24468;52.128;9.278;2022-08-30T07:01:07;101327.25;;;18.93;100.00
38718;BME280;24468;52.128;9.278;2022-08-30T07:03:35;101325.75;;;18.31;100.00
38718;BME280;24468;52.128;9.278;2022-08-30T07:06:01;101330.38;;;18.02;100.00
38718;BME280;24468;52.128;9.278;2022-08-30T07:08:26;101341.84;;;17.93;100.00
38718;BME280;24468;52.128;9.278;2022-08-30T07:10:53;101328.56;;;18.58;100.00
38718;BME280;24468;52.128;9.278;2022-08-30T07:13:20;101335.97;;;18.56;100.00
38718;BME280;24468;52.128;9.278;2022-08-30T07:15:46;101340.84;;;19.34;100.00
38718;BME280;24468;52.128;9.278;2022-08-30T07:18:13;101343.81;;;19.31;100.00
38718;BME280;24468;52.128;9.278;2022-08-30T07:21:04;101340.13;;;19.58;100.00
38718;BME280;24468;52.128;9.278;2022-08-30T07:23:29;101337.88;;;19.77;100.00
38718;BME280;24468;52.128;9.278;2022-08-30T07:25:55;101339.75;;;20.15;100.00
38718;BME280;24468;52.128;9.278;2022-08-30T07:28:21;101337.91;;;20.03;100.00
38718;BME280;24468;52.128;9.278;2022-08-30T07:30:47;101339.00;;;19.87;100.00
38718;BME280;24468;52.128;9.278;2022-08-30T07:33:12;101352.09;;;19.02;100.00
38718;BME280;24468;52.128;9.278;2022-08-30T07:35:38;101354.78;;;19.17;100.00
38718;BME280;24468;52.128;9.278;2022-08-30T07:38:03;101353.34;;;19.11;100.00
38718;BME280;24468;52.128;9.278;2022-08-30T07:40:29;101362.22;;;18.87;100.00
38718;BME280;24468;52.128;9.278;2022-08-30T07:42:55;101354.97;;;19.41;100.00
38718;BME280;24468;52.128;9.278;2022-08-30T07:45:20;101358.97;;;19.62;100.00
38718;BME280;24468;52.128;9.278;2022-08-30T07:47:46;101354.66;;;19.85;100.00
38718;BME280;24468;52.128;9.278;2022-08-30T07:50:12;101355.66;;;19.84;100.00
38718;BME280;24468;52.128;9.278;2022-08-30T07:52:38;101357.94;;;19.77;100.00
38718;BME280;24468;52.128;9.278;2022-08-30T07:55:04;101348.84;;;20.54;100.00
38718;BME280;24468;52.128;9.278;2022-08-30T07:57:30;101360.34;;;19.69;100.00
38718;BME280;24468;52.128;9.278;2022-08-30T07:59:59;101356.75;;;20.33;100.00
38718;BME280;24468;52.128;9.278;2022-08-30T08:02:25;101355.66;;;20.23;100.00
38718;BME280;24468;52.128;9.278;2022-08-30T08:04:51;101358.47;;;20.47;100.00
38718;BME280;24468;52.128;9.278;2022-08-30T08:07:16;101356.84;;;20.44;100.00
38718;BME280;24468;52.128;9.278;2022-08-30T08:09:42;101355.41;;;20.64;100.00
38718;BME280;24468;52.128;9.278;2022-08-30T08:12:08;101354.44;;;20.89;100.00
38718;BME280;24468;52.128;9.278;2022-08-30T08:14:34;101351.81;;;21.12;100.00
38718;BME280;24468;52.128;9.278;2022-08-30T08:17:00;101354.63;;;20.62;100.00
38718;BME280;24468;52.128;9.278;2022-08-30T08:19:26;101361.53;;;21.04;100.00
38718;BME280;24468;52.128;9.278;2022-08-30T08:21:52;101351.91;;;21.47;100.00
38718;BME280;24468;52.128;9.278;2022-08-30T08:24:23;101352.91;;;21.46;100.00
38718;BME280;24468;52.128;9.278;2022-08-30T08:26:49;101353.81;;;21.58;100.00
38718;BME280;24468;52.128;9.278;2022-08-30T08:29:15;101350.34;;;21.56;100.00
38718;BME280;24468;52.128;9.278;2022-08-30T08:31:40;101348.94;;;21.26;100.00
38718;BME280;24468;52.128;9.278;2022-08-30T08:34:07;101350.66;;;21.40;100.00
38718;BME280;24468;52.128;9.278;2022-08-30T08:36:34;101352.72;;;21.60;100.00
38718;BME280;24468;52.128;9.278;2022-08-30T08:39:03;101351.56;;;22.09;100.00
38718;BME280;24468;52.128;9.278;2022-08-30T08:42:02;101345.97;;;22.11;100.00
38718;BME280;24468;52.128;9.278;2022-08-30T08:44:59;101346.44;;;22.05;100.00
38718;BME280;24468;52.128;9.278;2022-08-30T08:50:02;101344.38;;;22.64;100.00
38718;BME280;24468;52.128;9.278;2022-08-30T08:52:43;101346.34;;;22.62;100.00
38718;BME280;24468;52.128;9.278;2022-08-30T08:55:31;101350.03;;;21.94;100.00
38718;BME280;24468;52.128;9.278;2022-08-30T08:57:57;101356.34;;;22.18;100.00
38718;BME280;24468;52.128;9.278;2022-08-30T09:00:23;101349.44;;;22.92;97.79
38718;BME280;24468;52.128;9.278;2022-08-30T09:03:01;101352.47;;;23.00;96.66
38718;BME280;24468;52.128;9.278;2022-08-30T09:05:35;101346.22;;;22.75;99.43
38718;BME280;24468;52.128;9.278;2022-08-30T09:08:10;101358.88;;;22.55;100.00
38718;BME280;24468;52.128;9.278;2022-08-30T09:10:39;101351.97;;;22.72;100.00
38718;BME280;24468;52.128;9.278;2022-08-30T09:13:05;101352.72;;;22.85;97.72
38718;BME280;24468;52.128;9.278;2022-08-30T09:15:33;101349.06;;;23.07;95.99
38718;BME280;24468;52.128;9.278;2022-08-30T09:18:06;101351.69;;;23.41;91.28
38718;BME280;24468;52.128;9.278;2022-08-30T09:20:43;101350.31;;;23.15;93.52
38718;BME280;24468;52.128;9.278;2022-08-30T09:26:06;101347.75;;;22.68;96.03
38718;BME280;24468;52.128;9.278;2022-08-30T09:28:46;101347.63;;;22.58;100.00
38718;BME280;24468;52.128;9.278;2022-08-30T09:31:31;101356.34;;;22.97;94.69
38718;BME280;24468;52.128;9.278;2022-08-30T09:36:44;101352.13;;;22.48;100.00
38718;BME280;24468;52.128;9.278;2022-08-30T09:41:48;101355.75;;;22.71;100.00
38718;BME280;24468;52.128;9.278;2022-08-30T09:44:24;101353.72;;;22.62;100.00
38718;BME280;24468;52.128;9.278;2022-08-30T09:46:59;101350.97;;;22.73;99.88
38718;BME280;24468;52.128;9.278;2022-08-30T09:49:40;101353.78;;;23.17;96.10
38718;BME280;24468;52.128;9.278;2022-08-30T09:55:38;101341.97;;;23.37;90.01
38718;BME280;24468;52.128;9.278;2022-08-30T10:06:44;101333.00;;;23.56;93.46
38718;BME280;24468;52.128;9.278;2022-08-30T10:09:21;101331.19;;;23.87;89.00
38718;BME280;24468;52.128;9.278;2022-08-30T10:19:22;101329.53;;;23.64;91.11
38718;BME280;24468;52.128;9.278;2022-08-30T10:22:23;101320.84;;;23.59;91.53
38718;BME280;24468;52.128;9.278;2022-08-30T10:25:24;101330.03;;;23.69;90.41
38718;BME280;24468;52.128;9.278;2022-08-30T10:28:13;101329.03;;;23.70;91.19
38718;BME280;24468;52.128;9.278;2022-08-30T10:30:51;101323.28;;;23.73;90.22
38718;BME280;24468;52.128;9.278;2022-08-30T10:33:27;101322.19;;;23.85;88.54
38718;BME280;24468;52.128;9.278;2022-08-30T10:36:00;101322.63;;;23.81;89.80
38718;BME280;24468;52.128;9.278;2022-08-30T10:38:35;101327.44;;;23.35;89.62
38718;BME280;24468;52.128;9.278;2022-08-30T10:44:28;101337.22;;;23.28;93.45
38718;BME280;24468;52.128;9.278;2022-08-30T10:47:36;101335.31;;;23.07;94.86
38718;BME280;24468;52.128;9.278;2022-08-30T10:55:52;101329.38;;;23.77;89.57
38718;BME280;24468;52.128;9.278;2022-08-30T10:58:20;101332.63;;;23.28;93.69
38718;BME280;24468;52.128;9.278;2022-08-30T11:01:23;101323.91;;;23.65;90.07
38718;BME280;24468;52.128;9.278;2022-08-30T11:07:30;101328.50;;;22.68;100.00
38718;BME280;24468;52.128;9.278;2022-08-30T11:10:21;101327.31;;;23.37;93.76
38718;BME280;24468;52.128;9.278;2022-08-30T11:13:17;101322.19;;;23.85;87.98
38718;BME280;24468;52.128;9.278;2022-08-30T11:16:08;101326.44;;;23.36;92.81
38718;BME280;24468;52.128;9.278;2022-08-30T11:18:51;101321.91;;;23.88;89.42
38718;BME280;24468;52.128;9.278;2022-08-30T11:21:39;101320.28;;;24.07;87.48
38718;BME280;24468;52.128;9.278;2022-08-30T11:24:15;101314.69;;;24.18;88.20
38718;BME280;24468;52.128;9.278;2022-08-30T11:32:20;101324.97;;;23.32;96.27
38718;BME280;24468;52.128;9.278;2022-08-30T11:37:41;101315.84;;;23.52;93.08
38718;BME280;24468;52.128;9.278;2022-08-30T11:42:50;101317.91;;;24.23;88.42
38718;BME280;24468;52.128;9.278;2022-08-30T11:47:58;101308.97;;;23.79;89.35
38718;BME280;24468;52.128;9.278;2022-08-30T11:50:54;101300.28;;;23.84;86.44
38718;BME280;24468;52.128;9.278;2022-08-30T11:53:40;101302.09;;;23.94;88.37
38718;BME280;24468;52.128;9.278;2022-08-30T11:56:44;101295.97;;;23.91;86.99
38718;BME280;24468;52.128;9.278;2022-08-30T12:02:08;101279.34;;;24.33;83.82
38718;BME280;24468;52.128;9.278;2022-08-30T12:04:44;101276.28;;;23.95;86.88
38718;BME280;24468;52.128;9.278;2022-08-30T12:07:11;101282.06;;;24.23;85.30
38718;BME280;24468;52.128;9.278;2022-08-30T12:09:59;101271.00;;;24.44;83.45
38718;BME280;24468;52.128;9.278;2022-08-30T12:14:53;101272.75;;;24.24;83.77
38718;BME280;24468;52.128;9.278;2022-08-30T12:20:22;101259.03;;;24.34;82.51
38718;BME280;24468;52.128;9.278;2022-08-30T12:22:52;101264.53;;;24.34;83.71
38718;BME280;24468;52.128;9.278;2022-08-30T12:25:28;101266.59;;;24.41;81.90
38718;BME280;24468;52.128;9.278;2022-08-30T12:28:10;101266.59;;;24.41;81.95
38718;BME280;24468;52.128;9.278;2022-08-30T12:30:36;101265.22;;;24.57;82.45
38718;BME280;24468;52.128;9.278;2022-08-30T12:33:08;101270.50;;;24.79;81.19
38718;BME280;24468;52.128;9.278;2022-08-30T12:35:34;101272.06;;;24.62;82.45
38718;BME280;24468;52.128;9.278;2022-08-30T12:38:04;101259.38;;;23.79;86.60
38718;BME280;24468;52.128;9.278;2022-08-30T12:40:31;101259.66;;;24.07;87.88
38718;BME280;24468;52.128;9.278;2022-08-30T12:43:28;101261.72;;;24.14;83.77
38718;BME280;24468;52.128;9.278;2022-08-30T12:45:58;101260.16;;;23.91;87.29
38718;BME280;24468;52.128;9.278;2022-08-30T12:48:25;101250.78;;;24.03;86.72
38718;BME280;24468;52.128;9.278;2022-08-30T12:50:57;101253.28;;;23.85;88.09
38718;BME280;24468;52.128;9.278;2022-08-30T12:53:34;101255.78;;;24.19;86.91
38718;BME280;24468;52.128;9.278;2022-08-30T12:56:10;101249.72;;;24.66;81.41
38718;BME280;24468;52.128;9.278;2022-08-30T12:58:51;101247.56;;;24.89;79.68
38718;BME280;24468;52.128;9.278;2022-08-30T13:01:30;101235.66;;;24.98;78.22
38718;BME280;24468;52.128;9.278;2022-08-30T13:04:21;101230.44;;;25.04;77.71
38718;BME280;24468;52.128;9.278;2022-08-30T13:07:00;101233.63;;;25.10;76.02
38718;BME280;24468;52.128;9.278;2022-08-30T13:09:40;101238.00;;;25.12;75.37
38718;BME280;24468;52.128;9.278;2022-08-30T13:12:27;101228.19;;;24.59;79.09
38718;BME280;24468;52.128;9.278;2022-08-30T13:18:27;101215.44;;;24.97;74.04
38718;BME280;24468;52.128;9.278;2022-08-30T13:21:33;101224.31;;;25.11;73.03
38718;BME280;24468;52.128;9.278;2022-08-30T13:24:05;101217.03;;;25.39;72.37
38718;BME280;24468;52.128;9.278;2022-08-30T13:26:36;101211.75;;;24.38;78.00
38718;BME280;24468;52.128;9.278;2022-08-30T13:29:05;101211.69;;;24.89;77.07
38718;BME280;24468;52.128;9.278;2022-08-30T13:31:32;101208.47;;;25.03;75.04
38718;BME280;24468;52.128;9.278;2022-08-30T13:33:58;101198.59;;;25.10;72.70
38718;BME280;24468;52.128;9.278;2022-08-30T13:36:29;101201.06;;;25.13;71.94
38718;BME280;24468;52.128;9.278;2022-08-30T13:38:56;101203.00;;;25.69;69.03
38718;BME280;24468;52.128;9.278;2022-08-30T13:41:23;101196.63;;;25.69;67.19
38718;BME280;24468;52.128;9.278;2022-08-30T13:43:49;101200.97;;;25.71;67.13
38718;BME280;24468;52.128;9.278;2022-08-30T13:46:15;101194.13;;;25.85;63.64
38718;BME280;24468;52.128;9.278;2022-08-30T13:48:42;101196.88;;;25.85;64.95
38718;BME280;24468;52.128;9.278;2022-08-30T13:51:08;101195.31;;;25.63;58.36
38718;BME280;24468;52.128;9.278;2022-08-30T13:53:35;101193.81;;;25.12;60.22
38718;BME280;24468;52.128;9.278;2022-08-30T13:56:02;101206.38;;;25.63;54.10
38718;BME280;24468;52.128;9.278;2022-08-30T13:58:28;101192.66;;;25.15;56.64
38718;BME280;24468;52.128;9.278;2022-08-30T14:00:54;101195.41;;;25.24;48.33
38718;BME280;24468;52.128;9.278;2022-08-30T14:03:20;101199.00;;;25.44;53.15
38718;BME280;24468;52.128;9.278;2022-08-30T14:05:46;101192.13;;;25.58;52.50
38718;BME280;24468;52.128;9.278;2022-08-30T14:08:14;101188.19;;;26.08;51.17